Bekir Hacibekiroglu — TCSY2 — position and weather

sailwx.info

Track history (hours):
 
Tides and Currents Weather Stations Pressure Air Temp Water Temp Dewpoint Dewpoint Depression Visibility Wind Speed Wind Dir Waves Ship Positions

Bekir Hacibekiroglu

Last reported at 2015-Apr-18 07:27 UTC. Time now 2015-Apr-18 11:43 UTC.
Position N 35°49' E 010°42'.

Length 83 m; draft 4 m.

Type: Cargo ship. MMSI: 271002635.

Date/timePositionNaut miles runAvg speedWind from/ knotsBaromVisibWave heightAir tempDewpointWater temp
2015-Apr-18 07:27N 35°49' E 010°42'0 0.0
2015-Apr-18 04:24N 35°49' E 010°42'0 0.0
2015-Apr-18 03:09N 35°49' E 010°42'0 0.0
2015-Apr-18 02:18N 35°49' E 010°42'0 0.0
2015-Apr-18 01:33N 35°49' E 010°42'0 0.0
2015-Apr-18 00:33N 35°49' E 010°42'0 0.0
2015-Apr-17 23:30N 35°49' E 010°42'0 0.0
2015-Apr-17 22:33N 35°49' E 010°42'0 0.0
2015-Apr-17 21:33N 35°49' E 010°42'0 0.0
2015-Apr-17 20:33N 35°49' E 010°42'0 0.0
2015-Apr-17 19:09N 35°49' E 010°42'0 0.0
2015-Apr-17 18:33N 35°49' E 010°42'0 0.0
2015-Apr-17 17:30N 35°49' E 010°42'0 0.0
2015-Apr-17 16:33N 35°49' E 010°42'0 0.0
2015-Apr-17 15:27N 35°49' E 010°42'0 0.0
2015-Apr-17 14:33N 35°49' E 010°42'0 0.0
2015-Apr-17 13:30N 35°49' E 010°42'0 0.0
2015-Apr-17 12:30N 35°49' E 010°42'0 0.0
2015-Apr-17 11:24N 35°49' E 010°42'0 0.0
2015-Apr-16 20:30N 35°49' E 010°42'0 0.0
2015-Apr-16 19:30N 35°49' E 010°42'0 0.0
2015-Apr-16 18:33N 35°49' E 010°42'0 0.0
2015-Apr-16 17:15N 35°49' E 010°42'0 0.0
2015-Apr-16 16:33N 35°49' E 010°42'0 0.1
2015-Apr-16 15:33N 35°49' E 010°42'0 0.0
2015-Apr-16 14:33N 35°49' E 010°42'0 0.0
2015-Apr-16 13:24N 35°49' E 010°42'0 0.0
2015-Apr-16 12:33N 35°49' E 010°42'0 0.0
2015-Apr-16 09:24N 35°49' E 010°42'0 0.0
2015-Apr-15 18:14N 35°49' E 010°42'0 0.0
2015-Apr-15 17:33N 35°49' E 010°42'0 0.0
2015-Apr-15 16:33N 35°49' E 010°42'0 0.0
2015-Apr-15 15:33N 35°49' E 010°42'0 0.0
2015-Apr-15 14:31N 35°49' E 010°42'90 6.4
2015-Apr-15 00:28N 34°46' E 012°00'1910.0
2015-Apr-14 22:33N 34°28' E 011°53'10 9.9
2015-Apr-14 21:33N 34°19' E 011°49'1110.4
2015-Apr-14 20:32N 34°10' E 011°42'7 7.6
2015-Apr-14 19:33N 34°04' E 011°36'1 1.0
2015-Apr-14 18:33N 34°04' E 011°37'1010.2
2015-Apr-14 17:33N 34°13' E 011°32'3 2.6
2015-Apr-14 16:32N 34°16' E 011°31'21 6.1
2015-Apr-14 13:04N 33°58' E 011°17'  
Track history (hours):
 
Tides and Currents Weather Stations Pressure Air Temp Water Temp Dewpoint Dewpoint Depression Visibility Wind Speed Wind Dir Waves Ship Positions

Bekir Hacibekiroglu

Last reported at 2015-Apr-18 07:27 UTC. Time now 2015-Apr-18 11:43 UTC.
Position N 35°49' E 010°42'.

Length 83 m; draft 4 m.

Type: Cargo ship. MMSI: 271002635.

Date/timePositionNaut miles runAvg speedWind from/ knotsBaromVisibWave heightAir tempDewpointWater temp
2015-Apr-18 07:27N 35°49' E 010°42'0 0.0
2015-Apr-18 04:24N 35°49' E 010°42'0 0.0
2015-Apr-18 03:09N 35°49' E 010°42'0 0.0
2015-Apr-18 02:18N 35°49' E 010°42'0 0.0
2015-Apr-18 01:33N 35°49' E 010°42'0 0.0
2015-Apr-18 00:33N 35°49' E 010°42'0 0.0
2015-Apr-17 23:30N 35°49' E 010°42'0 0.0
2015-Apr-17 22:33N 35°49' E 010°42'0 0.0
2015-Apr-17 21:33N 35°49' E 010°42'0 0.0
2015-Apr-17 20:33N 35°49' E 010°42'0 0.0
2015-Apr-17 19:09N 35°49' E 010°42'0 0.0
2015-Apr-17 18:33N 35°49' E 010°42'0 0.0
2015-Apr-17 17:30N 35°49' E 010°42'0 0.0
2015-Apr-17 16:33N 35°49' E 010°42'0 0.0
2015-Apr-17 15:27N 35°49' E 010°42'0 0.0
2015-Apr-17 14:33N 35°49' E 010°42'0 0.0
2015-Apr-17 13:30N 35°49' E 010°42'0 0.0
2015-Apr-17 12:30N 35°49' E 010°42'0 0.0
2015-Apr-17 11:24N 35°49' E 010°42'0 0.0
2015-Apr-16 20:30N 35°49' E 010°42'0 0.0
2015-Apr-16 19:30N 35°49' E 010°42'0 0.0
2015-Apr-16 18:33N 35°49' E 010°42'0 0.0
2015-Apr-16 17:15N 35°49' E 010°42'0 0.0
2015-Apr-16 16:33N 35°49' E 010°42'0 0.1
2015-Apr-16 15:33N 35°49' E 010°42'0 0.0
2015-Apr-16 14:33N 35°49' E 010°42'0 0.0
2015-Apr-16 13:24N 35°49' E 010°42'0 0.0
2015-Apr-16 12:33N 35°49' E 010°42'0 0.0
2015-Apr-16 09:24N 35°49' E 010°42'0 0.0
2015-Apr-15 18:14N 35°49' E 010°42'0 0.0
2015-Apr-15 17:33N 35°49' E 010°42'0 0.0
2015-Apr-15 16:33N 35°49' E 010°42'0 0.0
2015-Apr-15 15:33N 35°49' E 010°42'0 0.0
2015-Apr-15 14:31N 35°49' E 010°42'90 6.4
2015-Apr-15 00:28N 34°46' E 012°00'1910.0
2015-Apr-14 22:33N 34°28' E 011°53'10 9.9
2015-Apr-14 21:33N 34°19' E 011°49'1110.4
2015-Apr-14 20:32N 34°10' E 011°42'7 7.6
2015-Apr-14 19:33N 34°04' E 011°36'1 1.0
2015-Apr-14 18:33N 34°04' E 011°37'1010.2
2015-Apr-14 17:33N 34°13' E 011°32'3 2.6
2015-Apr-14 16:32N 34°16' E 011°31'21 6.1
2015-Apr-14 13:04N 33°58' E 011°17'  

Dump ship's entire track history